Time;durP1;ratioP1;P1;durP2;ratioP2;P2;SDS_P1;SDS_P2;PMS_P1;PMS_P2;Temp;Humidity;BMP_temperature;BMP_pressure;BME280_temperature;BME280_humidity;BME280_pressure;Samples;Min_cycle;Max_cycle;Signal;HPM_P1;HPM_P2
2022/07/19 00:01:28;;;;;;;9.60;8.63;;;;;;;14.78;81.45;101971.50;5013973;28;20472;-44
2022/07/19 00:03:57;;;;;;;8.23;7.63;;;;;;;14.72;81.66;101972.31;5014445;28;20449;-43
2022/07/19 00:06:25;;;;;;;7.83;7.23;;;;;;;14.69;81.83;101977.25;5014616;28;20531;-44
2022/07/19 00:08:52;;;;;;;18.90;9.47;;;;;;;14.64;82.17;101969.75;5014429;28;20528;-43
2022/07/19 00:11:21;;;;;;;8.37;7.87;;;;;;;14.61;82.64;101966.63;5013829;28;20540;-47
2022/07/19 00:13:49;;;;;;;8.03;7.43;;;;;;;14.61;82.97;101970.13;5014077;28;20433;-43
2022/07/19 00:16:17;;;;;;;9.67;8.80;;;;;;;14.56;82.87;101964.53;5014325;28;20476;-43
2022/07/19 00:18:45;;;;;;;9.20;8.40;;;;;;;14.53;82.97;101964.06;5014158;28;20440;-43
2022/07/19 00:21:13;;;;;;;8.43;7.77;;;;;;;14.48;83.13;101966.50;5013758;28;20453;-45
2022/07/19 00:23:40;;;;;;;9.80;9.00;;;;;;;14.42;83.30;101964.59;5013908;28;20528;-43
2022/07/19 00:26:08;;;;;;;9.73;8.83;;;;;;;14.37;83.60;101975.88;5014042;28;20435;-47
2022/07/19 00:28:37;;;;;;;7.60;6.93;;;;;;;14.34;84.11;101973.59;5014279;28;20433;-43
2022/07/19 00:31:05;;;;;;;8.70;8.10;;;;;;;14.29;84.23;101968.78;5013514;28;20452;-45
2022/07/19 00:33:33;;;;;;;8.70;7.97;;;;;;;14.24;84.41;101970.38;5013714;28;20524;-45
2022/07/19 00:36:00;;;;;;;10.30;9.40;;;;;;;14.22;84.87;101975.09;5013824;28;20478;-44
2022/07/19 00:38:28;;;;;;;10.00;8.73;;;;;;;14.15;84.69;101968.84;5013814;28;20443;-48
2022/07/19 00:40:56;;;;;;;8.93;8.03;;;;;;;14.12;84.86;101980.78;5014013;28;20813;-45
2022/07/19 00:43:24;;;;;;;10.07;9.10;;;;;;;14.10;85.61;101969.38;5013419;28;20441;-47
2022/07/19 00:45:53;;;;;;;8.83;8.10;;;;;;;14.07;86.11;101968.94;5014221;28;20437;-44
2022/07/19 00:48:21;;;;;;;9.00;8.20;;;;;;;14.06;86.21;101970.81;5013814;28;20445;-43
2022/07/19 00:50:49;;;;;;;9.50;8.80;;;;;;;14.06;86.08;101980.69;5013594;28;20461;-44
2022/07/19 00:53:18;;;;;;;9.40;8.60;;;;;;;14.05;86.26;101982.53;5012926;28;20463;-42
2022/07/19 00:55:46;;;;;;;8.03;7.43;;;;;;;14.03;86.27;101975.72;5013608;28;20447;-43
2022/07/19 00:58:18;;;;;;;8.73;8.10;;;;;;;14.01;86.02;101977.75;5013422;28;20438;-43
2022/07/19 01:00:45;;;;;;;10.40;9.17;;;;;;;13.98;85.95;101980.81;5012270;28;21073;-43
2022/07/19 01:03:14;;;;;;;9.63;8.83;;;;;;;13.93;85.92;101980.53;5012997;28;20540;-43
2022/07/19 01:05:43;;;;;;;9.70;8.93;;;;;;;13.88;85.91;101977.59;5013364;28;20437;-44
2022/07/19 01:08:11;;;;;;;10.20;9.37;;;;;;;13.82;86.39;101977.34;5013484;28;20883;-43
2022/07/19 01:10:38;;;;;;;11.83;9.77;;;;;;;13.79;86.89;101971.53;5013390;28;20507;-43
2022/07/19 01:13:06;;;;;;;10.30;9.30;;;;;;;13.75;87.25;101978.25;5012507;28;20472;-43
2022/07/19 01:15:34;;;;;;;9.50;8.60;;;;;;;13.72;87.55;101979.47;5013247;28;20441;-43
2022/07/19 01:18:02;;;;;;;9.40;8.50;;;;;;;13.69;87.64;101979.84;5013013;28;20487;-43
2022/07/19 01:20:30;;;;;;;8.83;8.17;;;;;;;13.65;87.69;101986.59;5013284;28;20879;-43
2022/07/19 01:23:00;;;;;;;9.83;9.03;;;;;;;13.61;88.38;101981.78;5012430;28;20471;-45
2022/07/19 01:25:29;;;;;;;10.03;9.33;;;;;;;13.55;88.77;101971.81;5013005;28;20433;-46
2022/07/19 01:27:57;;;;;;;9.67;8.67;;;;;;;13.53;88.90;101969.31;5013024;28;20886;-44
2022/07/19 01:30:26;;;;;;;9.33;8.63;;;;;;;13.50;88.87;101967.00;5012891;28;20475;-44
2022/07/19 01:32:56;;;;;;;9.87;9.07;;;;;;;13.48;88.86;101974.41;5012006;28;20544;-43
2022/07/19 01:35:23;;;;;;;9.90;8.70;;;;;;;13.45;88.92;101973.94;5012717;28;20456;-43
2022/07/19 01:37:52;;;;;;;8.97;8.27;;;;;;;13.43;89.06;101975.97;5012670;28;20480;-43
2022/07/19 01:40:21;;;;;;;8.37;7.70;;;;;;;13.42;88.57;101972.47;5012748;28;20860;-43
2022/07/19 01:42:49;;;;;;;9.37;8.53;;;;;;;13.41;88.80;101975.34;5012008;28;20461;-43
2022/07/19 01:45:18;;;;;;;8.47;7.87;;;;;;;13.40;89.05;101971.84;5012918;28;20433;-43
2022/07/19 01:47:46;;;;;;;9.17;8.37;;;;;;;13.38;88.61;101973.84;5012870;28;20520;-43
2022/07/19 01:50:15;;;;;;;8.23;7.53;;;;;;;13.37;88.75;101980.25;5012807;28;20455;-43
2022/07/19 01:52:44;;;;;;;8.13;7.33;;;;;;;13.38;88.88;101981.06;5011801;28;21050;-43
2022/07/19 01:55:17;;;;;;;8.70;7.93;;;;;;;13.35;89.08;101981.44;5012569;28;20487;-43
2022/07/19 01:57:47;;;;;;;8.73;7.93;;;;;;;13.32;89.06;101979.13;5012196;28;21202;-43
2022/07/19 02:00:15;;;;;;;9.57;8.57;;;;;;;13.28;88.88;101976.81;5012424;28;20532;-43
2022/07/19 02:02:42;;;;;;;9.10;8.30;;;;;;;13.22;89.14;101977.56;5010213;28;20476;-43
2022/07/19 02:05:10;;;;;;;7.70;7.20;;;;;;;13.21;89.29;101975.03;5011127;28;20852;-43
2022/07/19 02:07:38;;;;;;;9.27;8.40;;;;;;;13.19;89.53;101972.56;5009043;28;20441;-43
2022/07/19 02:10:08;;;;;;;8.40;7.60;;;;;;;13.18;89.63;101975.41;5010745;28;20441;-43
2022/07/19 02:12:36;;;;;;;8.73;7.93;;;;;;;13.14;89.35;101974.94;5011183;28;20469;-43
2022/07/19 02:15:07;;;;;;;8.10;7.50;;;;;;;13.11;89.56;101974.50;5012381;28;20433;-44
2022/07/19 02:17:34;;;;;;;8.57;7.93;;;;;;;13.06;89.75;101972.31;5012466;28;20477;-43
2022/07/19 02:20:02;;;;;;;9.60;8.90;;;;;;;13.02;89.46;101972.88;5012112;28;20444;-46
2022/07/19 02:22:30;;;;;;;9.40;8.50;;;;;;;12.96;89.80;101981.66;5011384;28;20926;-44
2022/07/19 02:24:57;;;;;;;9.13;8.23;;;;;;;12.93;89.84;101980.13;5011967;28;20436;-46
2022/07/19 02:27:25;;;;;;;8.40;7.90;;;;;;;12.93;90.42;101976.66;5011972;28;20988;-45
2022/07/19 02:29:53;;;;;;;8.80;8.10;;;;;;;12.92;90.29;101988.38;5012092;28;20472;-43
2022/07/19 02:32:22;;;;;;;8.97;8.27;;;;;;;12.91;90.68;101984.03;5011221;28;20556;-43
2022/07/19 02:34:50;;;;;;;8.83;8.03;;;;;;;12.90;90.88;101987.72;5011765;28;20487;-43
2022/07/19 02:37:18;;;;;;;9.33;8.53;;;;;;;12.88;91.05;101982.53;5011772;28;20987;-44
2022/07/19 02:39:45;;;;;;;9.60;8.60;;;;;;;12.88;91.40;101987.06;5012115;28;20440;-45
2022/07/19 02:42:13;;;;;;;9.13;8.20;;;;;;;12.85;91.38;101974.03;5011183;28;20473;-46
2022/07/19 02:44:41;;;;;;;9.43;8.70;;;;;;;12.85;91.43;101990.94;5011913;28;20533;-43
2022/07/19 02:47:08;;;;;;;8.50;7.90;;;;;;;12.85;91.33;101982.06;5011787;28;20437;-47
2022/07/19 02:49:37;;;;;;;10.43;9.47;;;;;;;12.83;91.57;101979.59;5011810;28;20437;-47
2022/07/19 02:52:05;;;;;;;9.77;9.00;;;;;;;12.80;91.22;101977.28;5011056;28;20473;-45
2022/07/19 02:54:33;;;;;;;9.00;8.30;;;;;;;12.77;91.52;101980.31;5011949;28;20447;-43
2022/07/19 02:57:00;;;;;;;10.10;9.30;;;;;;;12.74;91.70;101983.34;5011567;28;20524;-43
2022/07/19 02:59:28;;;;;;;8.67;8.07;;;;;;;12.72;92.10;101977.34;5011797;28;20834;-43
2022/07/19 03:01:56;;;;;;;9.00;8.30;;;;;;;12.71;92.51;101979.19;5011033;28;20469;-43
2022/07/19 03:04:24;;;;;;;9.40;8.50;;;;;;;12.71;92.62;101981.03;5011455;28;20437;-45
2022/07/19 03:06:53;;;;;;;9.60;8.80;;;;;;;12.70;93.18;101990.91;5011907;28;20443;-45
2022/07/19 03:09:20;;;;;;;9.80;9.10;;;;;;;12.70;93.39;101982.88;5011864;28;20890;-43
2022/07/19 03:11:48;;;;;;;11.57;10.67;;;;;;;12.71;93.57;101987.22;5011193;28;20468;-43
2022/07/19 03:14:16;;;;;;;10.90;10.00;;;;;;;12.72;93.81;101988.06;5011471;28;20812;-43
2022/07/19 03:16:43;;;;;;;10.60;9.60;;;;;;;12.73;94.00;101987.03;5011591;28;20443;-44
2022/07/19 03:19:11;;;;;;;9.70;8.90;;;;;;;12.75;94.45;101993.84;5011369;28;20476;-42
2022/07/19 03:21:39;;;;;;;9.47;8.60;;;;;;;12.78;94.35;101985.47;5010969;28;20473;-46
2022/07/19 03:24:08;;;;;;;9.90;9.07;;;;;;;12.84;94.84;101993.81;5013005;28;20428;-43
2022/07/19 03:26:35;;;;;;;8.47;7.90;;;;;;;12.90;94.73;101998.44;5015322;28;20448;-44
2022/07/19 03:29:03;;;;;;;9.27;8.57;;;;;;;12.96;94.88;101995.03;5015392;28;20435;-43
2022/07/19 03:31:31;;;;;;;9.30;8.50;;;;;;;13.01;94.40;101996.16;5014771;28;20473;-43
2022/07/19 03:33:59;;;;;;;9.40;8.47;;;;;;;13.08;94.32;101997.09;5015044;28;20536;-43
2022/07/19 03:36:26;;;;;;;8.60;8.00;;;;;;;13.14;93.95;102001.72;5015336;28;20429;-45
2022/07/19 03:38:54;;;;;;;7.90;7.30;;;;;;;13.21;93.83;101991.13;5015062;28;21055;-43
2022/07/19 03:41:23;;;;;;;8.27;7.67;;;;;;;13.29;93.61;101994.53;5014588;28;20460;-43
2022/07/19 03:43:51;;;;;;;11.50;9.50;;;;;;;13.41;93.86;101989.56;5014809;28;20532;-46
2022/07/19 03:46:20;;;;;;;7.73;7.23;;;;;;;13.51;93.65;101990.13;5015231;28;20436;-44
2022/07/19 03:48:48;;;;;;;8.17;7.50;;;;;;;13.60;93.22;101980.13;5015310;28;20836;-43
2022/07/19 03:51:16;;;;;;;14.53;8.80;;;;;;;13.73;93.26;101991.88;5014433;28;20476;-43
2022/07/19 03:53:45;;;;;;;8.93;8.23;;;;;;;13.82;92.54;101984.53;5014886;28;20531;-44
2022/07/19 03:56:13;;;;;;;9.77;8.90;;;;;;;13.92;92.20;101990.44;5014758;28;20449;-43
2022/07/19 03:58:42;;;;;;;9.30;8.23;;;;;;;14.03;91.95;101997.16;5014975;28;20484;-44
2022/07/19 04:01:09;;;;;;;10.20;9.10;;;;;;;14.11;91.23;101986.31;5014063;28;20548;-43
2022/07/19 04:03:38;;;;;;;12.63;8.23;;;;;;;14.21;91.34;101985.00;5014639;28;20437;-46
2022/07/19 04:06:06;;;;;;;9.70;9.00;;;;;;;14.30;90.85;101983.03;5014585;28;20443;-43
2022/07/19 04:08:34;;;;;;;10.03;9.10;;;;;;;14.37;90.50;101983.94;5014537;28;20931;-43
2022/07/19 04:11:04;;;;;;;11.40;9.30;;;;;;;14.44;90.05;101975.97;5013998;28;20552;-42
2022/07/19 04:13:33;;;;;;;10.20;9.40;;;;;;;14.50;89.42;101973.34;5014567;28;20459;-42
2022/07/19 04:16:02;;;;;;;10.10;9.30;;;;;;;14.58;89.43;101967.00;5014658;28;20443;-43
2022/07/19 04:18:30;;;;;;;10.43;9.43;;;;;;;14.68;89.54;101971.03;5014541;28;20483;-43
2022/07/19 04:20:58;;;;;;;9.30;8.63;;;;;;;14.76;89.22;101984.31;5013967;28;20547;-45
2022/07/19 04:23:25;;;;;;;10.47;9.23;;;;;;;14.87;89.24;101985.66;5014079;28;20433;-43
2022/07/19 04:25:53;;;;;;;8.27;7.67;;;;;;;15.02;89.93;101988.25;5014239;28;20463;-43
2022/07/19 04:28:21;;;;;;;10.50;9.27;;;;;;;15.24;90.31;101987.16;5014193;28;20441;-45
2022/07/19 04:30:49;;;;;;;10.03;9.03;;;;;;;15.67;90.89;102001.28;5014316;28;20457;-43
2022/07/19 04:33:19;;;;;;;9.60;8.70;;;;;;;16.79;91.25;101983.56;5013293;28;20492;-43
2022/07/19 04:35:47;;;;;;;7.53;6.93;;;;;;;17.98;90.19;101977.72;5013929;28;20500;-43
2022/07/19 04:38:14;;;;;;;8.77;7.87;;;;;;;19.02;86.51;101980.75;5013893;28;20547;-44
2022/07/19 04:40:42;;;;;;;8.40;7.67;;;;;;;20.00;81.05;101975.28;5014143;28;20453;-44
2022/07/19 04:43:10;;;;;;;7.93;7.23;;;;;;;20.89;76.14;101969.78;5013315;28;20475;-43
2022/07/19 04:45:39;;;;;;;8.57;7.93;;;;;;;21.78;72.74;101969.34;5013893;28;20436;-45
2022/07/19 04:48:07;;;;;;;10.47;9.20;;;;;;;22.59;68.40;101968.97;5013873;28;20531;-43
2022/07/19 04:50:36;;;;;;;8.80;7.90;;;;;;;23.35;65.61;101972.88;5013676;28;20531;-43
2022/07/19 04:53:03;;;;;;;8.03;7.33;;;;;;;24.10;62.41;101962.13;5013203;28;20472;-43
2022/07/19 04:55:31;;;;;;;8.70;7.30;;;;;;;24.85;59.61;101972.09;5013706;28;20890;-43
2022/07/19 04:57:59;;;;;;;9.20;8.60;;;;;;;25.42;57.09;101958.50;5013768;28;20436;-44
2022/07/19 05:00:27;;;;;;;9.40;8.50;;;;;;;26.06;54.87;101961.78;5013704;28;20863;-44
2022/07/19 05:02:55;;;;;;;6.30;5.90;;;;;;;26.60;52.92;101958.59;5013070;28;20456;-45
2022/07/19 05:05:23;;;;;;;7.43;6.73;;;;;;;27.10;51.78;101957.72;5012422;28;20794;-45
2022/07/19 05:07:52;;;;;;;7.30;6.80;;;;;;;27.73;50.70;101967.94;5012403;28;20528;-45
2022/07/19 05:10:20;;;;;;;6.90;6.40;;;;;;;28.23;49.06;101963.28;5010376;28;20516;-45
2022/07/19 05:12:47;;;;;;;7.50;7.07;;;;;;;28.73;48.28;101968.44;5011704;28;20905;-45
2022/07/19 05:15:15;;;;;;;8.03;7.53;;;;;;;29.25;46.63;101964.06;5010808;28;20551;-46
2022/07/19 05:17:43;;;;;;;8.67;7.97;;;;;;;29.78;46.05;101964.78;5012641;28;20436;-44
2022/07/19 05:20:13;;;;;;;7.13;6.63;;;;;;;30.23;44.47;101964.13;5012941;28;20476;-45
2022/07/19 05:22:41;;;;;;;8.50;7.83;;;;;;;30.66;43.68;101965.66;5012567;28;20305;-46
2022/07/19 05:25:16;;;;;;;7.80;7.23;;;;;;;30.99;43.21;101960.97;5013246;28;20240;-46
2022/07/19 05:27:44;;;;;;;9.20;8.50;;;;;;;31.24;41.17;101962.44;5013076;28;20290;-44
2022/07/19 05:30:12;;;;;;;8.97;8.27;;;;;;;31.57;40.90;101961.19;5012892;28;20194;-44
2022/07/19 05:32:40;;;;;;;10.50;9.23;;;;;;;31.82;40.51;101970.06;5012375;28;20319;-44
2022/07/19 05:35:09;;;;;;;7.90;7.30;;;;;;;32.06;39.72;101967.88;5011430;28;20729;-44
2022/07/19 05:37:37;;;;;;;9.73;8.80;;;;;;;32.13;39.73;101965.50;5013149;28;20203;-46
2022/07/19 05:40:05;;;;;;;10.40;9.13;;;;;;;32.28;38.86;101967.91;5012892;28;20228;-44
2022/07/19 05:42:34;;;;;;;10.40;9.63;;;;;;;32.51;38.49;101977.00;5012056;28;20233;-45
2022/07/19 05:45:02;;;;;;;9.07;8.47;;;;;;;32.56;37.46;101974.13;5006213;28;20909;-45
2022/07/19 05:47:30;;;;;;;8.63;8.02;;;;;;;32.82;37.45;101966.84;5011862;28;20580;-44
2022/07/19 05:49:59;;;;;;;10.55;8.40;;;;;;;32.86;36.54;101973.34;5012822;28;20289;-50
2022/07/19 05:52:26;;;;;;;9.70;8.80;;;;;;;33.13;36.53;101983.44;5011830;28;20225;-44
2022/07/19 05:55:03;;;;;;;9.68;8.77;;;;;;;32.49;33.50;101982.03;5012633;28;20204;-44
2022/07/19 05:57:31;;;;;;;9.48;8.77;;;;;;;32.04;35.56;101984.75;5012463;28;20204;-44
2022/07/19 06:00:00;;;;;;;10.98;10.00;;;;;;;31.71;35.78;101992.34;5011295;28;20308;-44
2022/07/19 06:02:27;;;;;;;11.52;10.40;;;;;;;31.66;37.76;101983.38;5008846;28;20247;-46
2022/07/19 06:04:55;;;;;;;9.63;9.00;;;;;;;32.05;37.23;101991.91;5011356;28;20233;-44
2022/07/19 06:07:23;;;;;;;8.77;8.07;;;;;;;32.38;35.12;101992.50;5011174;28;20284;-45
2022/07/19 06:09:51;;;;;;;7.53;7.03;;;;;;;32.29;36.83;102000.72;5011252;28;20193;-45
2022/07/19 06:12:19;;;;;;;12.77;11.75;;;;;;;32.11;35.75;101987.88;5010760;28;20236;-45
2022/07/19 06:14:46;;;;;;;12.05;11.23;;;;;;;32.10;35.83;102005.59;5011478;28;20200;-46
2022/07/19 06:17:16;;;;;;;10.60;9.77;;;;;;;32.20;34.45;101993.47;5009762;28;20190;-45
2022/07/19 06:19:43;;;;;;;10.80;10.00;;;;;;;32.01;34.66;102001.09;5011207;28;20218;-45
2022/07/19 06:22:11;;;;;;;13.00;10.65;;;;;;;31.56;36.55;102005.63;5010298;28;20225;-44
2022/07/19 06:24:38;;;;;;;9.52;8.75;;;;;;;31.79;35.63;101999.06;5011286;28;20201;-46
2022/07/19 06:27:06;;;;;;;9.85;9.15;;;;;;;31.96;36.48;101995.69;5012355;28;20192;-46
2022/07/19 06:29:34;;;;;;;9.18;8.38;;;;;;;32.40;36.38;101992.19;5012450;28;20274;-47
2022/07/19 06:32:01;;;;;;;9.95;9.02;;;;;;;33.00;35.55;101992.63;5011582;28;20229;-44
2022/07/19 06:34:30;;;;;;;8.98;8.38;;;;;;;33.42;35.99;101998.34;5012147;28;20197;-44
2022/07/19 06:36:58;;;;;;;9.77;9.07;;;;;;;33.89;35.71;102001.44;5011965;28;20264;-46
2022/07/19 06:39:25;;;;;;;8.82;8.13;;;;;;;34.20;34.40;101993.81;5011946;28;20308;-43
2022/07/19 06:41:53;;;;;;;9.63;8.82;;;;;;;34.24;32.55;101997.56;5010969;28;20711;-43
2022/07/19 06:44:21;;;;;;;9.00;8.15;;;;;;;34.44;33.58;101993.31;5011905;28;20344;-44
2022/07/19 06:46:48;;;;;;;8.80;8.00;;;;;;;34.73;33.91;101989.91;5012104;28;20290;-43
2022/07/19 06:49:22;;;;;;;7.97;7.38;;;;;;;35.09;33.31;101990.31;5011972;28;20236;-43
2022/07/19 06:51:51;;;;;;;7.57;7.18;;;;;;;35.25;32.82;101983.06;5011477;28;20229;-45
2022/07/19 06:54:18;;;;;;;9.23;8.63;;;;;;;35.48;31.79;101987.16;5011937;28;20311;-42
2022/07/19 06:56:46;;;;;;;7.90;7.30;;;;;;;35.74;31.21;101987.06;5011884;28;20292;-42
2022/07/19 06:59:13;;;;;;;9.48;8.85;;;;;;;35.77;30.66;101994.72;5013733;28;20194;-45
2022/07/19 07:01:41;;;;;;;10.25;9.30;;;;;;;35.78;29.32;101990.81;5015814;28;20243;-44
2022/07/19 07:04:09;;;;;;;9.63;8.93;;;;;;;35.86;28.72;101995.47;5015604;28;20205;-43
2022/07/19 07:06:36;;;;;;;8.18;7.65;;;;;;;36.18;29.11;101991.16;5015898;28;20296;-42
2022/07/19 07:09:05;;;;;;;9.55;8.95;;;;;;;36.40;27.60;101990.81;5015691;28;20755;-44
2022/07/19 07:11:33;;;;;;;8.30;7.75;;;;;;;36.12;28.51;101988.91;5015176;28;20239;-44
2022/07/19 07:14:01;;;;;;;8.95;8.32;;;;;;;35.88;28.83;101997.91;5015642;28;20276;-45
2022/07/19 07:16:29;;;;;;;8.88;8.13;;;;;;;35.59;29.50;101995.97;5015472;28;20622;-42
2022/07/19 07:18:56;;;;;;;9.65;8.73;;;;;;;35.43;28.21;101995.69;5015594;28;20253;-45
2022/07/19 07:21:24;;;;;;;8.07;7.55;;;;;;;34.97;29.71;101982.66;5015011;28;20309;-43
2022/07/19 07:23:52;;;;;;;7.97;7.38;;;;;;;34.86;28.51;101975.84;5015435;28;20208;-43
2022/07/19 07:26:21;;;;;;;9.55;8.93;;;;;;;34.35;29.39;101971.19;5015525;28;20255;-43
2022/07/19 07:28:48;;;;;;;10.25;8.32;;;;;;;33.58;31.47;101978.53;5015356;28;20200;-43
2022/07/19 07:31:16;;;;;;;9.07;8.43;;;;;;;33.03;32.22;101976.22;5014762;28;20209;-43
2022/07/19 07:33:44;;;;;;;10.48;9.52;;;;;;;32.96;30.81;101975.84;5015048;28;20324;-43
2022/07/19 07:36:11;;;;;;;8.63;7.88;;;;;;;32.78;32.11;101974.94;5015223;28;20284;-43
2022/07/19 07:38:39;;;;;;;8.95;8.35;;;;;;;32.85;31.07;101968.97;5015346;28;20237;-45
2022/07/19 07:41:07;;;;;;;8.57;7.97;;;;;;;33.11;31.47;101969.94;5014574;28;20221;-44
2022/07/19 07:43:56;;;;;;;8.77;8.15;;;;;;;33.15;31.17;101970.94;5015197;28;20201;-45
2022/07/19 07:46:23;;;;;;;8.68;7.95;;;;;;;33.22;31.23;101976.81;5015208;28;20198;-45
2022/07/19 07:48:51;;;;;;;7.95;7.43;;;;;;;33.06;30.84;101969.25;5015021;28;20205;-44
2022/07/19 07:51:23;;;;;;;8.88;8.23;;;;;;;32.82;32.23;101970.44;5014344;28;20233;-42
2022/07/19 07:54:11;;;;;;;7.85;7.35;;;;;;;33.12;31.63;101970.75;5014573;28;20668;-44
2022/07/19 07:56:39;;;;;;;8.98;8.30;;;;;;;33.38;30.56;101968.91;5014746;28;20225;-43
2022/07/19 07:59:08;;;;;;;8.95;8.00;;;;;;;33.56;30.75;101970.59;5015151;28;20207;-42
2022/07/19 08:01:37;;;;;;;9.25;8.38;;;;;;;33.53;31.47;101973.16;5014157;28;20233;-44
2022/07/19 08:04:06;;;;;;;8.98;8.30;;;;;;;33.36;31.31;101971.97;5013814;28;20203;-44
2022/07/19 08:06:34;;;;;;;9.75;8.75;;;;;;;33.14;33.44;101969.31;5014632;28;20189;-47
2022/07/19 08:09:01;;;;;;;9.93;9.00;;;;;;;32.37;32.71;101963.28;5013849;28;20204;-42
2022/07/19 08:11:29;;;;;;;8.55;7.95;;;;;;;31.49;36.66;101966.63;5014223;28;20260;-44
2022/07/19 08:13:57;;;;;;;9.30;8.50;;;;;;;31.01;36.38;101968.91;5013405;28;20293;-44
2022/07/19 08:16:26;;;;;;;9.10;8.40;;;;;;;30.79;35.80;101966.00;5014888;28;20259;-45
2022/07/19 08:18:54;;;;;;;9.23;8.13;;;;;;;30.28;37.41;101974.28;5014571;28;20247;-44
2022/07/19 08:21:21;;;;;;;10.50;9.70;;;;;;;29.87;37.91;101974.84;5013843;28;20221;-45
2022/07/19 08:23:49;;;;;;;10.57;9.73;;;;;;;29.48;40.76;101960.50;5014557;28;20300;-47
2022/07/19 08:26:16;;;;;;;11.27;9.00;;;;;;;29.51;39.05;101968.97;5014374;28;20681;-44
2022/07/19 08:28:46;;;;;;;10.07;9.27;;;;;;;29.24;39.12;101965.97;5014539;28;20438;-44
2022/07/19 08:31:14;;;;;;;11.13;10.10;;;;;;;29.31;39.88;101965.63;5014029;28;20452;-45
2022/07/19 08:33:43;;;;;;;10.37;9.57;;;;;;;29.41;41.08;101965.53;5013794;28;20926;-47
2022/07/19 08:36:11;;;;;;;10.10;9.23;;;;;;;29.73;40.32;101962.91;5013429;28;20436;-46
2022/07/19 08:38:39;;;;;;;10.33;9.40;;;;;;;30.05;38.94;101951.22;5014216;28;20436;-47
2022/07/19 08:41:08;;;;;;;9.37;8.60;;;;;;;30.52;38.13;101959.31;5013524;28;20486;-45
2022/07/19 08:43:36;;;;;;;19.10;8.20;;;;;;;31.13;37.33;101964.56;5014137;28;20523;-45
2022/07/19 08:46:04;;;;;;;9.20;8.40;;;;;;;31.43;36.26;101943.84;5013895;28;20432;-44
2022/07/19 08:48:34;;;;;;;9.33;8.13;;;;;;;31.65;35.52;101946.72;5013421;28;20981;-45
2022/07/19 08:51:09;;;;;;;8.40;7.70;;;;;;;31.59;35.14;101938.84;5025906;28;20573;-46
2022/07/19 08:53:40;;;;;;;7.40;6.90;;;;;;;31.64;35.32;101944.25;5033127;28;20243;-44
2022/07/19 08:58:50;;;;;;;8.70;8.00;;;;;;;31.54;34.73;101941.72;5033004;28;20200;-45
2022/07/19 09:01:18;;;;;;;10.80;7.67;;;;;;;31.45;34.79;101936.06;5032604;28;20231;-46
2022/07/19 09:04:05;;;;;;;7.37;6.87;;;;;;;31.61;35.83;101933.84;5032551;28;20438;-45
2022/07/19 09:06:40;;;;;;;7.30;6.60;;;;;;;31.64;34.78;101939.53;5033257;28;20543;-47
2022/07/19 09:09:08;;;;;;;7.97;7.27;;;;;;;31.66;34.69;101939.25;5033086;28;20200;-46
2022/07/19 09:11:38;;;;;;;8.47;7.70;;;;;;;31.73;34.89;101939.63;5032279;28;20551;-43
2022/07/19 09:14:08;;;;;;;8.83;8.03;;;;;;;31.71;35.03;101944.66;5033049;28;20431;-46
2022/07/19 09:17:09;;;;;;;8.40;7.60;;;;;;;31.82;34.24;101939.72;5033583;28;20433;-44
2022/07/19 09:19:39;;;;;;;9.03;8.43;;;;;;;31.81;34.08;101936.13;4972068;28;20430;-44
2022/07/19 09:22:11;;;;;;;7.13;6.63;;;;;;;31.79;33.93;101930.94;5019366;28;20525;-45
2022/07/19 09:24:41;;;;;;;8.27;7.50;;;;;;;31.89;33.57;101934.59;5033201;28;20787;-44
2022/07/19 09:27:11;;;;;;;9.03;7.93;;;;;;;31.70;33.18;101930.03;5033244;28;20444;-45
2022/07/19 09:29:42;;;;;;;7.90;7.30;;;;;;;31.87;33.42;101936.84;5033030;28;20203;-45
2022/07/19 09:32:14;;;;;;;6.70;6.30;;;;;;;32.00;33.40;101925.75;5029796;28;20467;-45
2022/07/19 09:34:43;;;;;;;8.00;7.33;;;;;;;31.91;33.03;101935.91;5013449;28;20456;-45
2022/07/19 09:37:18;;;;;;;7.90;7.40;;;;;;;31.92;33.12;101933.97;5013456;28;20440;-47
2022/07/19 09:39:48;;;;;;;7.37;6.87;;;;;;;32.01;33.97;101929.34;5013395;28;20575;-44
2022/07/19 09:42:18;;;;;;;8.07;7.33;;;;;;;32.14;32.23;101922.97;5012564;28;20527;-46
2022/07/19 09:44:46;;;;;;;8.70;7.90;;;;;;;32.20;32.71;101916.19;5013494;28;20429;-44
2022/07/19 09:47:14;;;;;;;7.00;6.40;;;;;;;32.20;32.05;101916.19;5012940;28;20201;-45
2022/07/19 09:49:42;;;;;;;7.53;7.00;;;;;;;32.21;32.28;101917.84;5013336;28;20208;-44
2022/07/19 09:52:11;;;;;;;7.20;6.60;;;;;;;32.26;31.83;101920.47;5012404;28;20229;-45
2022/07/19 09:54:41;;;;;;;7.13;6.43;;;;;;;32.29;32.06;101925.34;5012935;28;20194;-44
2022/07/19 09:57:10;;;;;;;6.67;6.27;;;;;;;32.45;32.30;101920.28;5013122;28;20437;-48
2022/07/19 09:59:48;;;;;;;7.13;6.53;;;;;;;32.57;31.80;101915.03;5012820;28;20213;-46
2022/07/19 10:02:22;;;;;;;6.90;6.40;;;;;;;32.74;31.40;101915.94;5011166;28;20225;-46
2022/07/19 10:04:51;;;;;;;7.73;7.07;;;;;;;32.85;31.46;101920.03;5012865;28;20729;-44
2022/07/19 10:07:19;;;;;;;7.30;6.70;;;;;;;32.83;30.97;101916.78;5012990;28;20228;-45
2022/07/19 10:09:51;;;;;;;8.20;7.60;;;;;;;32.87;31.50;101903.16;5012878;28;20495;-44
2022/07/19 10:12:19;;;;;;;7.67;7.03;;;;;;;32.84;31.00;101906.56;5011933;28;20272;-45
2022/07/19 10:14:47;;;;;;;7.40;7.00;;;;;;;32.88;30.82;101909.50;5012825;28;20218;-48
2022/07/19 10:17:22;;;;;;;7.20;6.80;;;;;;;33.01;30.69;101912.13;5012300;28;20194;-43
2022/07/19 10:19:57;;;;;;;7.17;6.67;;;;;;;33.12;30.20;101913.53;5012534;28;20297;-44
2022/07/19 10:22:27;;;;;;;7.10;6.60;;;;;;;33.22;30.70;101915.16;5011660;28;20233;-44
2022/07/19 10:25:00;;;;;;;7.20;6.70;;;;;;;33.32;30.40;101910.19;5011522;28;20201;-46
2022/07/19 10:27:40;;;;;;;7.70;7.17;;;;;;;33.24;29.86;101912.91;5012612;28;20206;-45
2022/07/19 10:30:26;;;;;;;7.23;6.57;;;;;;;33.23;29.94;101908.50;5011952;28;20224;-48
2022/07/19 10:32:58;;;;;;;7.37;6.77;;;;;;;33.14;28.95;101916.78;5011496;28;20646;-46
2022/07/19 10:35:31;;;;;;;6.50;6.10;;;;;;;33.34;30.20;101913.41;5012445;28;20228;-43
2022/07/19 10:38:09;;;;;;;5.83;5.53;;;;;;;33.47;28.65;101911.66;5012432;28;20212;-45
2022/07/19 10:40:41;;;;;;;7.07;6.60;;;;;;;33.37;27.76;101917.50;5012129;28;20201;-44
2022/07/19 10:43:12;;;;;;;8.17;7.53;;;;;;;33.47;28.67;101916.38;5011083;28;20227;-47
2022/07/19 10:45:42;;;;;;;7.03;6.57;;;;;;;33.37;28.27;101918.31;5011765;28;20663;-44
2022/07/19 10:48:12;;;;;;;6.87;6.47;;;;;;;33.32;29.87;101899.13;5011029;28;20193;-46
2022/07/19 10:50:58;;;;;;;6.93;6.53;;;;;;;33.51;29.20;101903.53;5011250;28;20737;-47
2022/07/19 10:53:57;;;;;;;6.63;6.13;;;;;;;33.67;28.63;101904.72;5010343;28;20332;-44
2022/07/19 10:56:29;;;;;;;7.13;6.50;;;;;;;33.62;27.97;101907.66;5011643;28;20198;-45
2022/07/19 10:58:59;;;;;;;7.40;7.00;;;;;;;33.70;27.56;101909.59;5012507;28;20186;-45
2022/07/19 11:01:32;;;;;;;10.43;7.17;;;;;;;33.67;28.49;101904.72;5011288;28;20229;-44
2022/07/19 11:04:29;;;;;;;7.23;6.73;;;;;;;33.62;28.31;101902.13;5011943;28;20652;-46
2022/07/19 11:07:23;;;;;;;7.10;6.60;;;;;;;33.69;28.50;101908.00;5011774;28;20671;-45
2022/07/19 11:09:55;;;;;;;7.67;7.20;;;;;;;33.79;27.99;101907.66;5019319;28;20602;-46
2022/07/19 11:12:36;;;;;;;6.83;6.43;;;;;;;33.64;26.11;101908.13;5030667;28;20274;-47
2022/07/19 11:15:08;;;;;;;7.00;6.60;;;;;;;33.71;28.03;101905.72;5031235;28;20554;-43
2022/07/19 11:17:52;;;;;;;6.57;6.13;;;;;;;33.87;27.82;101906.88;5031368;28;20193;-45
2022/07/19 11:20:22;;;;;;;7.53;6.93;;;;;;;34.03;28.14;101899.69;5030958;28;20196;-45
2022/07/19 11:22:50;;;;;;;7.40;6.80;;;;;;;34.10;28.32;101900.03;5030633;28;20723;-44
2022/07/19 11:25:26;;;;;;;7.57;6.80;;;;;;;33.87;27.65;101909.63;5031370;28;20268;-44
2022/07/19 11:27:57;;;;;;;7.00;6.40;;;;;;;33.92;28.06;101901.97;5031620;28;20200;-45
2022/07/19 11:30:40;;;;;;;6.13;5.63;;;;;;;33.95;27.42;101892.22;5024944;28;20186;-44
2022/07/19 11:33:08;;;;;;;7.30;6.77;;;;;;;33.94;28.77;101901.63;5010439;28;20628;-46
2022/07/19 11:35:54;;;;;;;7.67;7.17;;;;;;;33.95;28.96;101908.81;5010839;28;20227;-44
2022/07/19 11:38:22;;;;;;;7.30;6.90;;;;;;;33.84;28.43;101910.28;5011468;28;20264;-44